Acmar, Alabama
Current Conditions -  °F | °C
As of 4:53 PM on Wednesday 22 Oct 2014 (Local Time) from KBHM Reporting Station
Clear Clear  
Wind Chill: 68°   Ceiling: Unl
Heat Index: 68°   Visibility: 10mi
Dew Point: 39°   Wind: 8mph
Humidity: 35%   Direction: 10°N
Pressure: 30.12"   Gusts: NA
Location:  33.6013°N, 86.5003°W
Report Text: KBHM 222153Z 01007KT 10SM CLR 20/04 A3012 RMK AO2 SLP196 T02000039
Loading
Personal Weather Stations






























Interactive Weather Map
Tropical Storm Tracking
New forecast layout! Learn more

10-Day Weather Forecast

Advertisements
Track Severe Weather on mobile